Time;durP1;ratioP1;P1;durP2;ratioP2;P2;SDS_P1;SDS_P2;PMS_P1;PMS_P2;Temp;Humidity;BMP_temperature;BMP_pressure;BME280_temperature;BME280_humidity;BME280_pressure;Samples;Min_cycle;Max_cycle;Signal;HPM_P1;HPM_P2
2021/08/19 00:03:17;;;;;;;1.20;1.10;;;;;;;17.48;65.73;100127.70;4906798;60;21200;-80
2021/08/19 00:08:23;;;;;;;2.60;1.60;;;;;;;17.48;66.04;100126.36;4906709;60;21626;-78
2021/08/19 00:13:29;;;;;;;1.40;1.30;;;;;;;17.48;65.97;100118.34;4906527;60;21188;-80
2021/08/19 00:18:37;;;;;;;1.20;1.10;;;;;;;17.51;65.94;100115.32;4867935;60;21689;-79
2021/08/19 00:23:43;;;;;;;1.77;1.10;;;;;;;17.50;66.16;100112.31;4907070;60;21535;-80
2021/08/19 00:28:49;;;;;;;2.30;1.30;;;;;;;17.51;66.15;100108.64;4907031;60;21759;-80
2021/08/19 00:33:54;;;;;;;1.57;1.47;;;;;;;17.52;66.09;100114.82;4905080;60;21185;-78
2021/08/19 00:39:05;;;;;;;3.47;1.27;;;;;;;17.52;66.14;100111.64;4903247;60;21178;-79
2021/08/19 00:44:11;;;;;;;1.97;1.80;;;;;;;17.52;66.12;100102.79;4902972;60;21124;-78
2021/08/19 00:49:17;;;;;;;0.93;0.93;;;;;;;17.49;66.14;100105.30;4903041;60;21170;-79
2021/08/19 00:54:27;;;;;;;1.30;1.20;;;;;;;17.50;66.30;100098.11;4902958;60;21201;-78
2021/08/19 00:59:39;;;;;;;1.20;1.10;;;;;;;17.49;66.20;100097.28;4901681;60;21177;-78
2021/08/19 01:04:45;;;;;;;1.50;1.37;;;;;;;17.46;66.15;100097.62;4897962;60;21224;-80
2021/08/19 01:09:50;;;;;;;2.90;1.67;;;;;;;17.46;66.14;100096.78;4898186;60;21699;-80
2021/08/19 01:14:57;;;;;;;1.03;0.97;;;;;;;17.46;66.05;100090.10;4897788;60;21152;-79
2021/08/19 01:20:03;;;;;;;1.70;1.20;;;;;;;17.44;66.27;100100.12;4897975;60;21171;-80
2021/08/19 01:25:11;;;;;;;2.90;1.40;;;;;;;17.42;66.40;100092.78;4898053;60;21175;-77
2021/08/19 01:30:17;;;;;;;5.43;1.20;;;;;;;17.37;66.36;100098.67;4897819;60;21179;-80
2021/08/19 01:35:26;;;;;;;7.47;1.50;;;;;;;17.40;66.22;100094.32;4901060;60;21630;-79
2021/08/19 01:40:32;;;;;;;3.77;1.17;;;;;;;17.40;66.07;100087.64;4901833;60;21177;-79
2021/08/19 01:45:38;;;;;;;2.43;1.43;;;;;;;17.39;66.13;100084.63;4901789;60;21693;-79
2021/08/19 01:50:44;;;;;;;3.83;1.07;;;;;;;17.40;66.03;100089.48;4902041;60;21200;-79
2021/08/19 01:55:51;;;;;;;2.17;1.30;;;;;;;17.39;66.17;100079.79;4901961;60;21122;-78
2021/08/19 02:00:57;;;;;;;1.87;1.53;;;;;;;17.35;66.42;100079.30;4901873;60;21641;-78
2021/08/19 02:06:03;;;;;;;2.37;1.13;;;;;;;17.31;66.26;100071.28;4902027;60;21262;-79
2021/08/19 02:11:09;;;;;;;2.90;1.33;;;;;;;17.32;66.33;100069.44;4901701;60;21704;-81
2021/08/19 02:16:14;;;;;;;2.30;1.17;;;;;;;17.28;66.56;100070.28;4902730;59;21559;-78
2021/08/19 02:21:20;;;;;;;1.10;1.10;;;;;;;17.27;66.67;100067.78;4910916;60;21192;-78
2021/08/19 02:26:26;;;;;;;1.60;1.50;;;;;;;17.27;66.70;100071.29;4910928;60;21607;-80
2021/08/19 02:31:32;;;;;;;4.27;1.27;;;;;;;17.27;66.57;100067.28;4910721;60;21559;-79
2021/08/19 02:36:37;;;;;;;2.53;1.40;;;;;;;17.26;66.72;100065.64;4907003;60;21470;-80
2021/08/19 02:41:45;;;;;;;1.80;1.70;;;;;;;17.23;66.76;100076.67;4906826;60;21439;-80
2021/08/19 02:46:50;;;;;;;2.57;1.60;;;;;;;17.21;66.87;100070.16;4906843;60;21230;-80
2021/08/19 02:51:56;;;;;;;1.37;1.30;;;;;;;17.20;66.96;100075.17;4906917;60;21211;-78
2021/08/19 02:57:01;;;;;;;1.40;1.30;;;;;;;17.19;66.98;100078.02;4906997;60;21209;-79
2021/08/19 03:02:07;;;;;;;1.70;1.60;;;;;;;17.20;67.08;100075.67;4906848;60;21522;-80
2021/08/19 03:07:13;;;;;;;2.07;1.97;;;;;;;17.14;67.42;100064.33;4906777;60;21186;-79
2021/08/19 03:12:19;;;;;;;2.77;1.27;;;;;;;17.10;67.44;100065.20;4906772;60;21226;-78
2021/08/19 03:17:27;;;;;;;1.43;1.20;;;;;;;17.10;67.48;100061.69;4904997;58;21123;-80
2021/08/19 03:22:32;;;;;;;3.47;1.40;;;;;;;17.07;67.84;100060.19;4897692;60;21182;-79
2021/08/19 03:27:38;;;;;;;1.60;1.50;;;;;;;17.05;67.83;100052.84;4897720;60;21708;-78
2021/08/19 03:32:44;;;;;;;2.17;1.97;;;;;;;17.07;68.15;100055.34;4898642;60;21738;-81
2021/08/19 03:37:50;;;;;;;3.73;1.90;;;;;;;17.06;67.87;100054.52;4901645;60;21630;-78
2021/08/19 03:42:55;;;;;;;2.60;1.83;;;;;;;17.04;68.23;100059.20;4901687;60;21189;-79
2021/08/19 03:48:01;;;;;;;1.97;1.87;;;;;;;17.06;68.15;100053.68;4904734;60;21213;-79
2021/08/19 03:53:06;;;;;;;1.47;1.37;;;;;;;17.02;68.69;100053.69;4907215;60;21180;-79
2021/08/19 03:58:12;;;;;;;1.60;1.53;;;;;;;17.03;68.87;100049.52;4883110;60;21603;-78
2021/08/19 04:03:18;;;;;;;4.47;1.87;;;;;;;17.01;68.88;100040.83;4865800;60;21621;-80
2021/08/19 04:08:24;;;;;;;4.30;1.80;;;;;;;17.01;68.54;100046.17;4902337;60;21210;-79
2021/08/19 04:13:30;;;;;;;2.47;2.27;;;;;;;17.00;68.97;100049.84;4862679;60;21611;-79
2021/08/19 04:18:37;;;;;;;1.93;1.83;;;;;;;16.98;69.03;100057.70;4887883;59;21201;-81
2021/08/19 04:23:45;;;;;;;4.07;2.30;;;;;;;16.99;69.49;100064.20;4912248;59;21173;-80
2021/08/19 04:28:52;;;;;;;4.90;2.43;;;;;;;16.97;69.45;100057.36;4956248;59;21554;-80
2021/08/19 04:33:58;;;;;;;2.60;2.37;;;;;;;16.97;69.62;100056.03;4913481;59;21174;-79
2021/08/19 04:39:04;;;;;;;2.40;2.20;;;;;;;16.97;70.37;100060.03;4925777;59;21220;-83
2021/08/19 04:44:11;;;;;;;4.00;2.47;;;;;;;16.98;70.80;100077.73;4952603;59;22164;-79
2021/08/19 04:49:17;;;;;;;2.83;2.50;;;;;;;16.99;70.94;100072.22;4910797;59;21177;-79
2021/08/19 04:54:23;;;;;;;12.43;2.40;;;;;;;16.96;71.50;100073.89;4898060;60;21216;-79
2021/08/19 04:59:29;;;;;;;3.10;2.87;;;;;;;17.00;71.36;100065.88;4909975;59;21149;-80
2021/08/19 05:04:34;;;;;;;2.90;2.70;;;;;;;17.00;71.92;100072.55;4904906;60;21133;-80
2021/08/19 05:09:41;;;;;;;8.90;4.10;;;;;;;17.00;72.44;100076.56;4904858;60;21653;-80
2021/08/19 05:14:47;;;;;;;4.20;2.87;;;;;;;17.03;72.16;100072.22;4905193;60;21199;-80
2021/08/19 05:19:53;;;;;;;6.17;3.03;;;;;;;17.07;72.84;100064.70;4904748;58;21165;-79
2021/08/19 05:24:58;;;;;;;7.87;3.27;;;;;;;17.10;72.66;100072.38;4908075;60;21184;-79
2021/08/19 05:30:07;;;;;;;7.50;2.23;;;;;;;17.13;72.86;100075.52;4914288;60;21129;-79
2021/08/19 05:35:13;;;;;;;3.90;3.40;;;;;;;17.15;73.32;100066.00;4911168;60;22158;-80
2021/08/19 05:40:18;;;;;;;3.60;3.30;;;;;;;17.19;73.07;100076.68;4919056;59;21184;-80
2021/08/19 05:45:24;;;;;;;8.10;3.60;;;;;;;17.22;73.27;100077.17;4910233;60;21150;-80
2021/08/19 05:50:38;;;;;;;3.60;3.30;;;;;;;17.26;73.19;100087.53;4910533;60;21223;-79
2021/08/19 05:55:39;;;;;;;7.43;3.67;;;;;;;17.30;73.18;100076.80;4909967;60;21233;-81
2021/08/19 06:00:50;;;;;;;3.90;3.30;;;;;;;17.36;73.26;100071.61;4910688;60;21480;-80
2021/08/19 06:05:55;;;;;;;7.40;4.20;;;;;;;17.42;73.11;100064.21;4910338;60;21194;-82
2021/08/19 06:11:01;;;;;;;4.80;3.27;;;;;;;17.51;72.79;100072.54;4910402;60;21166;-83
2021/08/19 06:16:07;;;;;;;3.30;3.10;;;;;;;17.65;72.55;100072.33;4910317;60;21174;-84
2021/08/19 06:21:13;;;;;;;4.57;3.60;;;;;;;17.82;72.25;100070.41;4905318;58;22149;-84
2021/08/19 06:26:19;;;;;;;4.10;3.70;;;;;;;17.88;71.59;100076.36;4901388;60;21207;-84
2021/08/19 06:31:25;;;;;;;5.93;3.37;;;;;;;17.98;71.15;100077.49;4901286;60;21623;-81
2021/08/19 06:36:31;;;;;;;3.37;3.10;;;;;;;18.04;71.48;100089.64;4907751;59;21189;-80
2021/08/19 06:41:37;;;;;;;5.63;3.70;;;;;;;18.06;70.87;100086.79;4904864;60;21414;-82
2021/08/19 06:46:43;;;;;;;3.63;3.33;;;;;;;18.09;70.72;100086.44;4905199;60;21216;-81
2021/08/19 06:51:49;;;;;;;4.13;2.70;;;;;;;18.19;70.67;100080.33;4905275;60;21178;-81
2021/08/19 06:57:00;;;;;;;3.80;3.40;;;;;;;18.31;70.06;100082.11;4904915;60;21098;-82
2021/08/19 07:02:06;;;;;;;6.63;3.40;;;;;;;18.31;69.66;100082.95;4866260;60;21180;-81
2021/08/19 07:07:12;;;;;;;4.03;3.67;;;;;;;18.33;69.42;100084.11;4904836;60;21679;-81
2021/08/19 07:12:19;;;;;;;3.10;2.90;;;;;;;18.36;69.21;100079.20;4905031;60;21129;-80
2021/08/19 07:17:24;;;;;;;3.10;3.00;;;;;;;18.34;68.99;100083.06;4905111;60;21141;-80
2021/08/19 07:22:30;;;;;;;3.07;2.83;;;;;;;18.37;68.87;100074.68;4910852;59;21736;-81
2021/08/19 07:27:51;;;;;;;;;;;;;;;;;;;;;
2021/08/19 07:32:45;;;;;;;2.77;2.57;;;;;;;18.23;68.39;100085.66;4910131;60;21102;-81
2021/08/19 07:37:54;;;;;;;2.90;2.70;;;;;;;18.17;68.38;100092.59;4910576;59;21182;-81
2021/08/19 07:42:59;;;;;;;3.07;2.83;;;;;;;18.12;68.38;100088.77;4910314;60;21158;-82
2021/08/19 07:48:13;;;;;;;2.83;2.70;;;;;;;18.05;68.77;100095.83;4906264;60;21174;-82
2021/08/19 07:53:19;;;;;;;2.90;2.70;;;;;;;17.97;69.33;100098.06;4900406;60;21225;-82
2021/08/19 07:58:24;;;;;;;8.80;3.67;;;;;;;17.85;69.66;100098.98;4908432;60;21164;-80
2021/08/19 08:03:30;;;;;;;5.27;3.90;;;;;;;17.83;69.79;100106.34;4910664;60;21161;-82
2021/08/19 08:08:36;;;;;;;2.80;2.57;;;;;;;17.80;69.80;100112.54;4900292;60;21182;-81
2021/08/19 08:13:41;;;;;;;3.00;2.80;;;;;;;17.81;69.72;100118.22;4908466;60;21203;-81
2021/08/19 08:18:47;;;;;;;5.43;2.70;;;;;;;17.84;69.81;100113.87;4907321;59;21181;-82
2021/08/19 08:23:53;;;;;;;3.27;3.07;;;;;;;17.88;69.95;100122.68;4954303;59;21173;-81
2021/08/19 08:28:59;;;;;;;6.67;3.60;;;;;;;18.00;69.79;100120.46;4966114;59;21170;-82
2021/08/19 08:34:04;;;;;;;4.40;3.00;;;;;;;18.26;69.44;100126.81;4963805;59;21171;-82
2021/08/19 08:39:10;;;;;;;3.77;3.03;;;;;;;18.59;67.76;100124.75;4961851;59;21184;-82
2021/08/19 08:44:17;;;;;;;3.33;3.03;;;;;;;18.77;66.38;100129.79;4962075;59;21161;-82
2021/08/19 08:49:26;;;;;;;3.03;2.70;;;;;;;18.82;65.11;100124.70;4962615;59;21172;-80
2021/08/19 08:54:32;;;;;;;3.55;3.08;;;;;;;18.75;66.38;100130.48;4966532;59;22158;-81
2021/08/19 08:59:37;;;;;;;3.33;3.10;;;;;;;18.75;66.38;100138.52;4966407;59;21170;-81
2021/08/19 09:04:43;;;;;;;5.10;3.20;;;;;;;18.73;66.92;100139.20;4960088;59;21193;-81
2021/08/19 09:09:50;;;;;;;3.33;2.90;;;;;;;18.72;66.99;100153.60;4966321;59;21193;-81
2021/08/19 09:14:56;;;;;;;6.42;3.25;;;;;;;18.81;66.82;100139.11;4966473;59;21228;-82
2021/08/19 09:20:09;;;;;;;3.13;2.83;;;;;;;18.91;65.80;100135.69;4966319;59;21496;-81
2021/08/19 09:25:24;;;;;;;6.55;3.08;;;;;;;19.06;65.61;100138.39;4966296;59;21214;-81
2021/08/19 09:30:30;;;;;;;3.08;2.80;;;;;;;19.22;62.61;100135.54;4963426;59;21598;-82
2021/08/19 09:35:37;;;;;;;4.03;2.85;;;;;;;19.29;62.03;100139.13;4965962;59;21182;-82
2021/08/19 09:40:44;;;;;;;3.22;2.98;;;;;;;19.32;61.25;100151.67;4959149;59;21201;-82
2021/08/19 09:45:49;;;;;;;2.52;2.33;;;;;;;19.31;59.96;100154.02;4966294;59;21222;-81
2021/08/19 09:51:17;;;;;;;3.15;2.85;;;;;;;19.27;60.24;100153.23;4966392;59;21524;-81
2021/08/19 09:56:37;;;;;;;8.35;3.10;;;;;;;19.20;61.42;100159.02;4966181;59;21710;-82
2021/08/19 10:01:42;;;;;;;5.47;2.65;;;;;;;19.17;61.08;100170.09;4953593;59;21178;-81
2021/08/19 10:06:49;;;;;;;4.85;2.92;;;;;;;19.18;61.33;100173.94;4959680;59;21485;-82
2021/08/19 10:11:57;;;;;;;3.90;3.20;;;;;;;19.15;61.24;100182.34;4966120;59;21831;-81
2021/08/19 10:17:02;;;;;;;3.08;2.80;;;;;;;19.04;61.63;100186.81;4966174;59;21654;-81
2021/08/19 10:22:15;;;;;;;2.62;2.42;;;;;;;18.91;62.03;100194.14;4966039;59;21699;-80
2021/08/19 10:27:27;;;;;;;3.20;2.60;;;;;;;18.76;61.81;100198.62;4961755;59;21189;-82
2021/08/19 10:32:41;;;;;;;2.90;2.70;;;;;;;18.69;62.59;100200.84;4958312;59;21191;-81
2021/08/19 10:37:55;;;;;;;6.62;2.90;;;;;;;18.65;63.06;100217.77;4930298;59;21211;-81
2021/08/19 10:43:21;;;;;;;4.13;2.70;;;;;;;18.60;63.04;100215.64;4958811;59;21178;-81
2021/08/19 10:48:27;;;;;;;4.25;2.87;;;;;;;18.59;63.10;100221.17;4946176;59;21741;-81
2021/08/19 10:53:33;;;;;;;2.87;2.65;;;;;;;18.60;63.62;100225.02;4959788;59;21213;-81
2021/08/19 10:58:43;;;;;;;10.28;3.22;;;;;;;18.59;63.44;100227.88;4962404;59;21610;-82
2021/08/19 11:03:54;;;;;;;4.35;3.33;;;;;;;18.58;63.51;100235.08;4962060;59;21115;-81
2021/08/19 11:09:00;;;;;;;5.22;2.60;;;;;;;18.53;63.47;100237.91;4966406;59;21181;-81
2021/08/19 11:14:20;;;;;;;4.65;3.42;;;;;;;18.47;63.43;100253.37;4966427;59;21215;-82
2021/08/19 11:19:28;;;;;;;4.10;2.93;;;;;;;18.40;63.12;100248.38;4960528;59;21180;-83
2021/08/19 11:24:39;;;;;;;3.23;2.80;;;;;;;18.44;63.32;100246.52;4964913;59;21171;-84
2021/08/19 11:29:45;;;;;;;11.80;2.60;;;;;;;18.55;63.71;100253.30;4966181;59;21185;-81
2021/08/19 11:34:52;;;;;;;4.83;3.13;;;;;;;18.60;63.30;100254.48;4958481;59;21582;-82
2021/08/19 11:40:00;;;;;;;4.50;3.47;;;;;;;18.64;63.39;100262.97;4962354;59;21128;-82
2021/08/19 11:45:25;;;;;;;8.40;4.83;;;;;;;18.69;63.69;100265.97;4961210;59;21239;-81
2021/08/19 11:50:31;;;;;;;5.50;2.55;;;;;;;18.82;63.89;100262.69;4965099;59;21538;-81
2021/08/19 11:55:37;;;;;;;3.83;2.80;;;;;;;19.08;61.53;100258.33;4966022;59;21557;-82
2021/08/19 12:01:04;;;;;;;4.37;3.17;;;;;;;19.23;61.71;100255.18;4955186;59;21199;-82
2021/08/19 12:06:19;;;;;;;3.80;2.60;;;;;;;19.46;61.37;100257.30;4820716;61;21238;-81
2021/08/19 12:11:28;;;;;;;3.33;2.50;;;;;;;19.53;61.28;100260.95;4954417;59;21552;-81
2021/08/19 12:16:34;;;;;;;6.47;2.67;;;;;;;19.50;61.31;100265.34;4754374;62;21162;-81
2021/08/19 12:21:56;;;;;;;26.50;4.08;;;;;;;19.38;61.99;100273.98;4953420;59;21192;-82
2021/08/19 12:27:11;;;;;;;3.30;2.27;;;;;;;19.47;61.95;100275.56;4954078;59;21604;-81
2021/08/19 12:32:35;;;;;;;7.42;2.47;;;;;;;19.58;61.49;100275.98;4954717;59;21218;-81
2021/08/19 12:37:54;;;;;;;6.80;2.02;;;;;;;19.56;61.31;100277.17;4947220;59;21175;-81
2021/08/19 12:43:10;;;;;;;6.60;2.45;;;;;;;19.48;60.48;100282.59;4957589;59;21147;-81
2021/08/19 12:48:20;;;;;;;2.40;1.72;;;;;;;19.36;61.18;100282.72;4948522;59;21174;-81
2021/08/19 12:53:23;;;;;;;2.65;2.42;;;;;;;19.35;61.40;100278.36;4950611;59;21534;-81
2021/08/19 12:58:32;;;;;;;2.85;2.27;;;;;;;19.41;61.25;100274.94;4945062;59;21232;-81
2021/08/19 13:03:38;;;;;;;2.92;2.15;;;;;;;19.49;61.53;100278.42;4951485;59;21278;-80
2021/08/19 13:08:43;;;;;;;3.30;1.87;;;;;;;19.87;60.89;100275.16;4950290;59;21148;-81
2021/08/19 13:13:49;;;;;;;3.08;2.12;;;;;;;20.17;59.19;100273.80;4966435;59;21138;-80
2021/08/19 13:18:55;;;;;;;3.60;2.45;;;;;;;20.48;57.61;100269.05;4966582;59;21170;-80
2021/08/19 13:24:00;;;;;;;1.87;1.67;;;;;;;20.74;57.54;100274.42;4949706;59;22118;-81
2021/08/19 13:29:06;;;;;;;1.92;1.72;;;;;;;21.09;57.02;100274.85;4913797;59;21166;-80
2021/08/19 13:34:12;;;;;;;2.15;1.95;;;;;;;20.99;55.56;100267.12;4939586;59;21648;-81
2021/08/19 13:39:17;;;;;;;2.55;1.60;;;;;;;21.27;55.44;100277.11;4901785;60;21657;-81
2021/08/19 13:44:23;;;;;;;3.72;2.15;;;;;;;21.50;54.81;100268.31;4901754;60;21191;-80
2021/08/19 13:49:30;;;;;;;4.12;1.65;;;;;;;21.72;53.72;100269.06;4901842;60;21639;-80
2021/08/19 13:54:36;;;;;;;2.02;1.77;;;;;;;21.87;52.66;100259.52;4902054;60;21181;-82
2021/08/19 13:59:42;;;;;;;2.47;2.05;;;;;;;21.73;52.15;100262.14;4898908;60;21516;-80
2021/08/19 14:04:47;;;;;;;5.47;2.37;;;;;;;21.47;52.59;100271.90;4866049;60;21683;-80
2021/08/19 14:09:54;;;;;;;3.20;2.20;;;;;;;21.21;53.48;100273.88;4862342;60;21182;-79
2021/08/19 14:15:00;;;;;;;4.97;2.02;;;;;;;21.08;54.14;100280.45;4859201;60;21107;-79
2021/08/19 14:20:07;;;;;;;4.75;3.00;;;;;;;20.99;53.76;100278.39;4862309;60;21170;-80
2021/08/19 14:25:13;;;;;;;2.83;2.50;;;;;;;20.85;53.87;100280.11;4860148;60;21690;-80
2021/08/19 14:30:22;;;;;;;5.47;3.08;;;;;;;20.79;53.42;100286.23;4879489;60;21272;-79
2021/08/19 14:35:29;;;;;;;2.50;2.27;;;;;;;20.77;53.28;100295.03;4896262;60;22078;-79
2021/08/19 14:40:37;;;;;;;2.95;2.62;;;;;;;20.70;53.88;100294.12;4905479;60;21818;-79
2021/08/19 14:45:42;;;;;;;8.75;5.08;;;;;;;20.69;54.10;100293.28;4868715;60;21198;-79
2021/08/19 14:50:49;;;;;;;4.50;2.62;;;;;;;20.76;54.54;100292.53;4829860;61;21174;-79
2021/08/19 14:55:55;;;;;;;12.78;3.47;;;;;;;20.82;54.21;100289.06;4867711;60;21229;-80
2021/08/19 15:01:02;;;;;;;9.38;2.60;;;;;;;20.86;54.57;100295.22;4854673;60;21186;-80
2021/08/19 15:06:07;;;;;;;3.83;2.70;;;;;;;20.90;54.09;100297.02;4865702;60;21634;-79
2021/08/19 15:11:13;;;;;;;2.60;2.33;;;;;;;20.83;54.49;100298.28;4884525;60;21167;-80
2021/08/19 15:16:18;;;;;;;8.23;3.40;;;;;;;20.81;55.02;100303.53;4860012;60;21195;-79
2021/08/19 15:21:24;;;;;;;4.08;2.60;;;;;;;20.73;54.72;100302.31;4864785;60;21119;-79
2021/08/19 15:26:30;;;;;;;5.70;2.85;;;;;;;20.64;54.82;100305.09;4872754;59;21114;-79
2021/08/19 15:31:40;;;;;;;4.10;1.98;;;;;;;20.58;55.05;100307.73;4907727;60;21182;-80
2021/08/19 15:44:26;;;;;;;;;;;;;;;;;;;;;
2021/08/19 15:50:00;;;;;;;5.72;3.05;;;;;;;20.29;55.96;100320.67;4420755;65;21273;-82
2021/08/19 15:55:01;;;;;;;3.08;2.75;;;;;;;20.23;56.25;100331.63;4541169;65;21248;-82
2021/08/19 16:00:09;;;;;;;4.42;1.95;;;;;;;20.22;56.61;100327.28;4483488;66;21178;-81
2021/08/19 16:05:17;;;;;;;2.95;1.90;;;;;;;20.19;56.83;100335.70;4483445;66;21233;-80
2021/08/19 16:10:23;;;;;;;7.80;2.35;;;;;;;20.21;56.87;100343.58;4506045;65;21232;-80
2021/08/19 16:15:32;;;;;;;2.22;1.95;;;;;;;20.17;56.77;100343.62;4577723;62;21224;-83
2021/08/19 16:20:40;;;;;;;2.80;2.00;;;;;;;20.15;56.99;100348.36;4866865;60;21119;-82
2021/08/19 16:25:47;;;;;;;4.12;2.90;;;;;;;20.12;57.23;100348.22;4839245;59;21175;-81
2021/08/19 16:30:53;;;;;;;4.70;2.30;;;;;;;20.08;57.16;100355.48;4839221;61;21667;-81
2021/08/19 16:35:58;;;;;;;4.03;3.02;;;;;;;19.98;57.33;100354.42;4903823;60;21210;-82
2021/08/19 16:41:04;;;;;;;5.40;2.60;;;;;;;19.92;57.86;100360.00;4911055;60;21222;-82
2021/08/19 16:46:10;;;;;;;28.10;3.65;;;;;;;19.89;58.43;100370.27;4896424;60;21638;-82
2021/08/19 16:51:16;;;;;;;5.03;3.10;;;;;;;19.76;59.43;100375.42;4849095;60;21185;-82
2021/08/19 16:56:21;;;;;;;4.47;2.95;;;;;;;19.63;60.02;100372.02;4898796;60;21646;-82
2021/08/19 17:01:28;;;;;;;8.90;3.42;;;;;;;19.56;60.69;100373.74;4914862;60;21237;-82
2021/08/19 17:06:34;;;;;;;4.00;3.02;;;;;;;19.49;61.06;100376.33;4891554;60;21698;-80
2021/08/19 17:11:40;;;;;;;6.25;3.22;;;;;;;19.47;61.59;100381.52;4866063;60;21683;-81
2021/08/19 17:16:47;;;;;;;3.92;3.62;;;;;;;19.44;62.04;100372.48;4888742;60;21198;-82
2021/08/19 17:21:52;;;;;;;4.03;2.83;;;;;;;19.41;62.12;100369.64;4872855;60;21173;-81
2021/08/19 17:26:58;;;;;;;6.15;3.40;;;;;;;19.41;62.00;100358.91;4915027;58;21212;-81
2021/08/19 17:32:04;;;;;;;5.62;3.12;;;;;;;19.41;62.09;100360.25;4883716;60;21770;-82
2021/08/19 17:37:14;;;;;;;4.22;3.02;;;;;;;19.41;62.16;100368.30;4910769;60;21174;-82
2021/08/19 17:42:19;;;;;;;4.05;3.22;;;;;;;19.39;62.41;100373.04;4910909;60;21552;-82
2021/08/19 17:47:24;;;;;;;3.60;3.30;;;;;;;19.36;62.34;100369.37;4910718;60;21549;-82
2021/08/19 17:52:30;;;;;;;5.10;3.65;;;;;;;19.33;62.44;100369.22;4910906;60;21190;-83
2021/08/19 17:57:36;;;;;;;3.83;3.47;;;;;;;19.29;62.53;100373.27;4910939;60;21178;-82
2021/08/19 18:02:42;;;;;;;4.58;2.90;;;;;;;19.25;62.61;100384.00;4910899;60;21193;-82
2021/08/19 18:07:49;;;;;;;7.62;4.03;;;;;;;19.22;62.89;100383.55;4866793;60;21492;-82
2021/08/19 18:12:56;;;;;;;6.00;4.20;;;;;;;19.16;63.01;100386.93;4870285;60;21203;-82
2021/08/19 18:18:01;;;;;;;8.53;4.75;;;;;;;19.13;63.11;100392.64;4899918;60;21568;-82
2021/08/19 18:23:08;;;;;;;7.20;4.70;;;;;;;19.11;63.16;100398.69;4914775;60;21225;-82
2021/08/19 18:28:15;;;;;;;14.63;4.55;;;;;;;19.09;63.19;100412.80;4873464;58;22171;-81
2021/08/19 18:33:21;;;;;;;4.40;3.65;;;;;;;19.03;63.21;100412.98;4856909;60;21122;-82
2021/08/19 18:38:27;;;;;;;5.58;3.92;;;;;;;18.96;63.44;100418.70;4905593;60;21596;-82
2021/08/19 18:43:33;;;;;;;6.87;5.20;;;;;;;18.91;63.80;100423.27;4905573;60;21234;-82
2021/08/19 18:48:39;;;;;;;7.87;4.78;;;;;;;18.83;64.00;100425.98;4905675;60;21173;-82
2021/08/19 18:53:45;;;;;;;14.63;6.17;;;;;;;18.81;64.16;100429.33;4896946;60;21205;-82
2021/08/19 18:58:52;;;;;;;17.73;5.87;;;;;;;18.81;64.21;100429.83;4879372;60;21193;-83
2021/08/19 19:03:57;;;;;;;17.37;6.37;;;;;;;18.79;64.27;100438.05;4905600;60;21206;-83
2021/08/19 19:09:03;;;;;;;11.10;4.12;;;;;;;18.78;64.27;100432.38;4882023;60;21532;-82
2021/08/19 19:14:10;;;;;;;11.85;4.08;;;;;;;18.74;64.29;100435.07;4831429;60;21193;-83
2021/08/19 19:19:17;;;;;;;7.15;4.97;;;;;;;18.65;64.55;100441.45;4873686;60;21181;-83
2021/08/19 19:24:23;;;;;;;12.90;4.97;;;;;;;18.56;64.83;100443.30;4870266;60;21505;-83
2021/08/19 19:29:29;;;;;;;23.35;4.65;;;;;;;18.51;65.03;100446.16;4888047;59;21183;-82
2021/08/19 19:34:35;;;;;;;8.88;4.00;;;;;;;18.45;65.28;100436.15;4957634;59;21175;-83
2021/08/19 19:39:41;;;;;;;12.55;4.67;;;;;;;18.42;65.52;100436.48;4940427;59;21424;-84
2021/08/19 19:44:46;;;;;;;5.62;3.92;;;;;;;18.41;65.62;100442.34;4918675;59;21174;-84
2021/08/19 19:49:52;;;;;;;11.25;4.33;;;;;;;18.38;65.72;100444.02;4921756;59;21183;-84
2021/08/19 19:54:57;;;;;;;12.58;5.10;;;;;;;18.34;65.79;100446.70;4938551;59;21228;-84
2021/08/19 20:00:05;;;;;;;20.82;4.12;;;;;;;18.28;65.94;100444.72;4933325;59;21171;-84
2021/08/19 20:05:12;;;;;;;8.15;4.85;;;;;;;18.20;66.01;100444.72;4911891;59;21259;-82
2021/08/19 20:10:19;;;;;;;6.60;4.50;;;;;;;18.14;66.10;100446.75;4915549;59;21172;-83
2021/08/19 20:15:25;;;;;;;11.67;4.33;;;;;;;18.09;66.01;100438.39;4955554;59;21176;-82
2021/08/19 20:20:31;;;;;;;6.70;4.47;;;;;;;18.07;66.14;100438.55;4941509;59;21232;-83
2021/08/19 20:25:37;;;;;;;6.10;4.63;;;;;;;18.04;66.07;100447.41;4941681;59;21183;-84
2021/08/19 20:30:43;;;;;;;6.67;4.17;;;;;;;17.96;66.23;100451.45;4934060;59;21131;-83
2021/08/19 20:35:49;;;;;;;6.83;4.47;;;;;;;17.88;66.31;100456.28;4932436;59;21171;-82
2021/08/19 20:40:55;;;;;;;9.40;4.63;;;;;;;17.83;66.41;100445.27;4942295;59;21561;-85
2021/08/19 20:46:01;;;;;;;9.23;4.70;;;;;;;17.76;66.63;100445.59;4924730;59;21207;-83
2021/08/19 20:51:09;;;;;;;21.33;5.57;;;;;;;17.71;66.75;100454.14;4943026;59;21591;-83
2021/08/19 20:56:15;;;;;;;11.93;4.87;;;;;;;17.63;66.87;100461.27;4956528;59;21223;-83
2021/08/19 21:01:20;;;;;;;18.13;5.43;;;;;;;17.58;66.96;100469.78;4924769;59;21697;-84
2021/08/19 21:06:26;;;;;;;10.77;4.27;;;;;;;17.57;67.07;100460.09;4925581;59;21508;-83
2021/08/19 21:11:31;;;;;;;15.97;4.63;;;;;;;17.59;67.26;100468.78;4897327;59;21721;-84
2021/08/19 21:16:37;;;;;;;8.10;4.53;;;;;;;17.57;67.39;100464.94;4885834;60;21133;-82
2021/08/19 21:21:43;;;;;;;5.73;4.30;;;;;;;17.62;67.58;100469.80;4885996;60;21723;-81
2021/08/19 21:26:48;;;;;;;9.33;4.43;;;;;;;17.55;67.50;100476.33;4885831;60;21196;-81
2021/08/19 21:31:54;;;;;;;9.20;5.03;;;;;;;17.46;67.66;100471.11;4857514;60;22018;-82
2021/08/19 21:37:00;;;;;;;6.30;4.53;;;;;;;17.45;67.81;100468.09;4891729;60;21171;-83
2021/08/19 21:42:06;;;;;;;9.73;6.83;;;;;;;17.51;67.99;100470.96;4898015;60;21792;-82
2021/08/19 21:47:11;;;;;;;8.07;6.43;;;;;;;17.47;67.91;100485.66;4897955;60;21142;-84
2021/08/19 21:52:17;;;;;;;15.27;6.50;;;;;;;17.32;67.97;100491.80;4897989;60;21225;-81
2021/08/19 21:57:24;;;;;;;12.37;5.10;;;;;;;17.14;68.38;100491.41;4897935;60;21208;-81
2021/08/19 22:02:30;;;;;;;11.33;5.83;;;;;;;17.03;68.74;100487.70;4897935;60;21170;-83
2021/08/19 22:07:37;;;;;;;12.90;6.13;;;;;;;16.96;69.24;100490.67;4859783;60;21178;-84
2021/08/19 22:12:44;;;;;;;14.07;6.07;;;;;;;16.89;69.64;100488.31;4897909;60;21605;-82
2021/08/19 22:17:49;;;;;;;5.80;4.53;;;;;;;16.83;69.89;100486.27;4897749;60;21738;-81
2021/08/19 22:22:55;;;;;;;8.47;5.33;;;;;;;16.77;70.06;100490.94;4901877;60;21123;-84
2021/08/19 22:28:01;;;;;;;8.97;5.37;;;;;;;16.72;70.51;100493.23;4903168;60;21119;-80
2021/08/19 22:33:06;;;;;;;10.73;5.50;;;;;;;16.70;70.77;100487.21;4904216;59;21185;-84
2021/08/19 22:38:12;;;;;;;6.90;5.37;;;;;;;16.65;70.84;100485.02;4907246;60;21180;-84
2021/08/19 22:43:18;;;;;;;11.63;5.23;;;;;;;16.67;71.07;100481.69;4907480;60;21226;-82
2021/08/19 22:48:24;;;;;;;10.67;5.47;;;;;;;16.68;71.20;100487.86;4906990;60;21126;-84
2021/08/19 22:53:30;;;;;;;9.40;6.60;;;;;;;16.66;71.91;100485.35;4907117;60;21176;-81
2021/08/19 22:58:35;;;;;;;11.23;6.37;;;;;;;16.61;72.65;100480.14;4907096;60;21204;-82
2021/08/19 23:03:41;;;;;;;10.40;6.20;;;;;;;16.59;73.21;100488.30;4907099;60;21555;-83
2021/08/19 23:08:47;;;;;;;7.30;5.17;;;;;;;16.63;73.69;100490.20;4907020;60;21212;-83
2021/08/19 23:13:53;;;;;;;16.97;6.00;;;;;;;16.67;74.10;100484.85;4906849;60;21188;-82
2021/08/19 23:18:59;;;;;;;8.57;5.40;;;;;;;16.71;74.40;100494.23;4906888;60;21192;-83
2021/08/19 23:24:05;;;;;;;9.67;5.57;;;;;;;16.71;74.75;100481.72;4906928;60;21508;-82
2021/08/19 23:29:11;;;;;;;8.77;5.10;;;;;;;16.74;75.02;100485.91;4906636;60;21670;-83
2021/08/19 23:34:17;;;;;;;7.07;5.17;;;;;;;16.75;75.29;100491.59;4911200;59;21235;-83
2021/08/19 23:39:23;;;;;;;8.70;5.30;;;;;;;16.78;75.46;100482.77;4911758;60;21564;-82
2021/08/19 23:44:29;;;;;;;7.67;5.67;;;;;;;16.84;75.78;100489.28;4911715;60;21302;-81
2021/08/19 23:49:37;;;;;;;9.80;5.63;;;;;;;16.87;76.69;100499.66;4911801;60;21190;-81
2021/08/19 23:54:41;;;;;;;10.70;5.67;;;;;;;16.90;76.19;100498.00;4907062;60;22215;-82
2021/08/19 23:59:47;;;;;;;7.67;5.77;;;;;;;16.93;76.57;100490.17;4911707;60;21236;-82
